Woodville, Wisconsin
Current Conditions -  °F | °C
As of 6:15 AM on Friday 19 Dec 2014 (Local Time) from KRNH Reporting Station
Overcast Overcast  
Wind Chill: 15°   Ceiling: 6000
Heat Index: 22°   Visibility: 10mi
Dew Point: 19°   Wind: 6mph
Humidity: 88%   Direction: 160°SSE
Pressure: 30.26"   Gusts: NA
Location:  44.95°N, 92.29°W
Report Text: KRNH 191215Z AUTO 16005KT 10SM OVC060 M05/M07 A3026 RMK AO2 T10551072
Loading
Personal Weather Stations






























Interactive Weather Map New forecast layout! Learn more

10-Day Weather Forecast

Advertisements
Track Severe Weather on mobile